sensor_id;sensor_type;location;lat;lon;timestamp;P1;durP1;ratioP1;P2;durP2;ratioP2
60867;SDS011;46702;48.370;10.794;2023-07-13T00:01:42;5.03;;;3.40;;
60867;SDS011;46702;48.370;10.794;2023-07-13T00:04:08;4.10;;;3.67;;
60867;SDS011;46702;48.370;10.794;2023-07-13T00:06:34;5.65;;;3.90;;
60867;SDS011;46702;48.370;10.794;2023-07-13T00:09:00;4.45;;;3.33;;
60867;SDS011;46702;48.370;10.794;2023-07-13T00:11:26;5.20;;;3.70;;
60867;SDS011;46702;48.370;10.794;2023-07-13T00:13:52;3.55;;;3.25;;
60867;SDS011;46702;48.370;10.794;2023-07-13T00:16:18;4.03;;;3.60;;
60867;SDS011;46702;48.370;10.794;2023-07-13T00:18:45;4.32;;;3.72;;
60867;SDS011;46702;48.370;10.794;2023-07-13T00:21:11;5.45;;;3.70;;
60867;SDS011;46702;48.370;10.794;2023-07-13T00:23:38;5.07;;;3.83;;
60867;SDS011;46702;48.370;10.794;2023-07-13T00:26:06;5.68;;;3.53;;
60867;SDS011;46702;48.370;10.794;2023-07-13T00:28:33;4.93;;;3.72;;
60867;SDS011;46702;48.370;10.794;2023-07-13T00:31:00;4.82;;;3.75;;
60867;SDS011;46702;48.370;10.794;2023-07-13T00:33:26;5.00;;;3.63;;
60867;SDS011;46702;48.370;10.794;2023-07-13T00:35:53;3.93;;;3.47;;
60867;SDS011;46702;48.370;10.794;2023-07-13T00:38:20;9.23;;;3.63;;
60867;SDS011;46702;48.370;10.794;2023-07-13T00:40:47;3.65;;;3.25;;
60867;SDS011;46702;48.370;10.794;2023-07-13T00:43:13;5.45;;;3.63;;
60867;SDS011;46702;48.370;10.794;2023-07-13T00:48:10;5.78;;;3.67;;
60867;SDS011;46702;48.370;10.794;2023-07-13T00:51:02;4.15;;;3.63;;
60867;SDS011;46702;48.370;10.794;2023-07-13T00:53:28;4.63;;;3.92;;
60867;SDS011;46702;48.370;10.794;2023-07-13T00:55:56;5.07;;;4.25;;
60867;SDS011;46702;48.370;10.794;2023-07-13T00:58:23;11.68;;;3.92;;
60867;SDS011;46702;48.370;10.794;2023-07-13T01:00:52;7.05;;;4.15;;
60867;SDS011;46702;48.370;10.794;2023-07-13T01:03:18;8.90;;;4.55;;
60867;SDS011;46702;48.370;10.794;2023-07-13T01:05:44;7.28;;;4.25;;
60867;SDS011;46702;48.370;10.794;2023-07-13T01:08:13;7.45;;;4.60;;
60867;SDS011;46702;48.370;10.794;2023-07-13T01:10:39;5.82;;;4.30;;
60867;SDS011;46702;48.370;10.794;2023-07-13T01:13:06;8.43;;;4.63;;
60867;SDS011;46702;48.370;10.794;2023-07-13T01:18:04;5.53;;;4.53;;
60867;SDS011;46702;48.370;10.794;2023-07-13T01:20:31;5.28;;;3.85;;
60867;SDS011;46702;48.370;10.794;2023-07-13T01:23:03;6.07;;;4.20;;
60867;SDS011;46702;48.370;10.794;2023-07-13T01:25:33;6.07;;;4.57;;
60867;SDS011;46702;48.370;10.794;2023-07-13T01:28:00;7.70;;;4.68;;
60867;SDS011;46702;48.370;10.794;2023-07-13T01:30:26;6.78;;;4.95;;
60867;SDS011;46702;48.370;10.794;2023-07-13T01:32:52;5.45;;;4.85;;
60867;SDS011;46702;48.370;10.794;2023-07-13T01:35:18;6.30;;;4.50;;
60867;SDS011;46702;48.370;10.794;2023-07-13T01:37:43;6.03;;;4.75;;
60867;SDS011;46702;48.370;10.794;2023-07-13T01:40:10;5.15;;;4.38;;
60867;SDS011;46702;48.370;10.794;2023-07-13T01:42:36;6.82;;;4.93;;
60867;SDS011;46702;48.370;10.794;2023-07-13T01:45:02;5.45;;;4.40;;
60867;SDS011;46702;48.370;10.794;2023-07-13T01:47:29;6.07;;;4.70;;
60867;SDS011;46702;48.370;10.794;2023-07-13T01:49:55;6.50;;;4.65;;
60867;SDS011;46702;48.370;10.794;2023-07-13T01:52:22;7.70;;;5.57;;
60867;SDS011;46702;48.370;10.794;2023-07-13T01:54:48;8.98;;;4.72;;
60867;SDS011;46702;48.370;10.794;2023-07-13T01:57:14;6.43;;;4.93;;
60867;SDS011;46702;48.370;10.794;2023-07-13T01:59:39;8.55;;;5.95;;
60867;SDS011;46702;48.370;10.794;2023-07-13T02:02:05;8.27;;;5.60;;
60867;SDS011;46702;48.370;10.794;2023-07-13T02:04:31;9.35;;;5.60;;
60867;SDS011;46702;48.370;10.794;2023-07-13T02:06:56;7.35;;;4.95;;
60867;SDS011;46702;48.370;10.794;2023-07-13T02:09:22;7.72;;;5.60;;
60867;SDS011;46702;48.370;10.794;2023-07-13T02:11:48;7.70;;;5.30;;
60867;SDS011;46702;48.370;10.794;2023-07-13T02:14:13;8.65;;;5.00;;
60867;SDS011;46702;48.370;10.794;2023-07-13T02:16:40;8.75;;;5.30;;
60867;SDS011;46702;48.370;10.794;2023-07-13T02:19:06;8.20;;;4.85;;
60867;SDS011;46702;48.370;10.794;2023-07-13T02:21:32;6.45;;;5.10;;
60867;SDS011;46702;48.370;10.794;2023-07-13T02:23:57;10.23;;;5.47;;
60867;SDS011;46702;48.370;10.794;2023-07-13T02:26:23;9.90;;;4.80;;
60867;SDS011;46702;48.370;10.794;2023-07-13T02:28:49;6.60;;;5.00;;
60867;SDS011;46702;48.370;10.794;2023-07-13T02:31:15;7.90;;;5.45;;
60867;SDS011;46702;48.370;10.794;2023-07-13T02:33:41;6.80;;;4.82;;
60867;SDS011;46702;48.370;10.794;2023-07-13T02:36:07;7.53;;;5.00;;
60867;SDS011;46702;48.370;10.794;2023-07-13T02:38:33;7.78;;;5.03;;
60867;SDS011;46702;48.370;10.794;2023-07-13T02:41:01;6.80;;;5.00;;
60867;SDS011;46702;48.370;10.794;2023-07-13T02:43:27;6.30;;;4.63;;
60867;SDS011;46702;48.370;10.794;2023-07-13T02:45:53;7.05;;;5.32;;
60867;SDS011;46702;48.370;10.794;2023-07-13T02:48:19;6.88;;;5.25;;
60867;SDS011;46702;48.370;10.794;2023-07-13T02:50:44;6.32;;;4.72;;
60867;SDS011;46702;48.370;10.794;2023-07-13T02:53:10;6.30;;;5.32;;
60867;SDS011;46702;48.370;10.794;2023-07-13T02:55:36;5.47;;;4.68;;
60867;SDS011;46702;48.370;10.794;2023-07-13T02:58:02;7.97;;;4.65;;
60867;SDS011;46702;48.370;10.794;2023-07-13T03:00:27;6.90;;;4.35;;
60867;SDS011;46702;48.370;10.794;2023-07-13T03:02:53;5.75;;;4.38;;
60867;SDS011;46702;48.370;10.794;2023-07-13T03:05:22;6.20;;;4.38;;
60867;SDS011;46702;48.370;10.794;2023-07-13T03:07:48;7.50;;;4.82;;
60867;SDS011;46702;48.370;10.794;2023-07-13T03:10:13;5.75;;;4.57;;
60867;SDS011;46702;48.370;10.794;2023-07-13T03:12:39;6.28;;;4.28;;
60867;SDS011;46702;48.370;10.794;2023-07-13T03:15:05;6.18;;;4.10;;
60867;SDS011;46702;48.370;10.794;2023-07-13T03:17:31;6.30;;;4.40;;
60867;SDS011;46702;48.370;10.794;2023-07-13T03:19:56;6.20;;;4.03;;
60867;SDS011;46702;48.370;10.794;2023-07-13T03:22:22;5.13;;;3.55;;
60867;SDS011;46702;48.370;10.794;2023-07-13T03:24:48;3.83;;;3.45;;
60867;SDS011;46702;48.370;10.794;2023-07-13T03:27:15;4.78;;;3.50;;
60867;SDS011;46702;48.370;10.794;2023-07-13T03:29:42;4.85;;;3.70;;
60867;SDS011;46702;48.370;10.794;2023-07-13T03:32:07;4.50;;;3.53;;
60867;SDS011;46702;48.370;10.794;2023-07-13T03:34:33;6.22;;;4.10;;
60867;SDS011;46702;48.370;10.794;2023-07-13T03:36:59;6.03;;;3.50;;
60867;SDS011;46702;48.370;10.794;2023-07-13T03:39:24;4.45;;;3.13;;
60867;SDS011;46702;48.370;10.794;2023-07-13T03:41:50;6.40;;;3.53;;
60867;SDS011;46702;48.370;10.794;2023-07-13T03:44:16;4.32;;;3.05;;
60867;SDS011;46702;48.370;10.794;2023-07-13T03:46:42;5.80;;;3.63;;
60867;SDS011;46702;48.370;10.794;2023-07-13T03:49:08;5.30;;;3.60;;
60867;SDS011;46702;48.370;10.794;2023-07-13T03:51:35;4.45;;;3.10;;
60867;SDS011;46702;48.370;10.794;2023-07-13T03:54:00;5.07;;;3.58;;
60867;SDS011;46702;48.370;10.794;2023-07-13T03:56:27;4.70;;;3.33;;
60867;SDS011;46702;48.370;10.794;2023-07-13T03:58:55;4.60;;;3.38;;
60867;SDS011;46702;48.370;10.794;2023-07-13T04:01:21;4.75;;;3.20;;
60867;SDS011;46702;48.370;10.794;2023-07-13T04:03:47;6.38;;;3.38;;
60867;SDS011;46702;48.370;10.794;2023-07-13T04:06:18;5.85;;;4.03;;
60867;SDS011;46702;48.370;10.794;2023-07-13T04:08:49;5.57;;;3.45;;
60867;SDS011;46702;48.370;10.794;2023-07-13T04:11:18;4.43;;;3.45;;
60867;SDS011;46702;48.370;10.794;2023-07-13T04:13:45;6.63;;;3.53;;
60867;SDS011;46702;48.370;10.794;2023-07-13T04:16:11;3.47;;;2.92;;
60867;SDS011;46702;48.370;10.794;2023-07-13T04:18:37;5.35;;;3.42;;
60867;SDS011;46702;48.370;10.794;2023-07-13T04:21:02;5.30;;;3.15;;
60867;SDS011;46702;48.370;10.794;2023-07-13T04:23:28;5.57;;;3.28;;
60867;SDS011;46702;48.370;10.794;2023-07-13T04:25:54;6.28;;;3.47;;
60867;SDS011;46702;48.370;10.794;2023-07-13T04:28:20;3.15;;;2.60;;
60867;SDS011;46702;48.370;10.794;2023-07-13T04:30:46;3.63;;;2.85;;
60867;SDS011;46702;48.370;10.794;2023-07-13T04:33:12;3.28;;;2.97;;
60867;SDS011;46702;48.370;10.794;2023-07-13T04:35:37;5.82;;;3.38;;
60867;SDS011;46702;48.370;10.794;2023-07-13T04:38:03;4.38;;;3.10;;
60867;SDS011;46702;48.370;10.794;2023-07-13T04:40:29;4.60;;;3.30;;
60867;SDS011;46702;48.370;10.794;2023-07-13T04:42:55;6.70;;;3.40;;
60867;SDS011;46702;48.370;10.794;2023-07-13T04:45:21;4.15;;;3.28;;
60867;SDS011;46702;48.370;10.794;2023-07-13T04:47:46;10.00;;;3.25;;
60867;SDS011;46702;48.370;10.794;2023-07-13T04:50:13;4.78;;;2.92;;
60867;SDS011;46702;48.370;10.794;2023-07-13T04:52:43;4.07;;;2.47;;
60867;SDS011;46702;48.370;10.794;2023-07-13T04:55:09;5.20;;;3.13;;
60867;SDS011;46702;48.370;10.794;2023-07-13T04:57:35;5.57;;;2.80;;
60867;SDS011;46702;48.370;10.794;2023-07-13T05:00:01;5.40;;;3.00;;
60867;SDS011;46702;48.370;10.794;2023-07-13T05:02:30;6.20;;;3.30;;
60867;SDS011;46702;48.370;10.794;2023-07-13T05:04:57;4.65;;;3.40;;
60867;SDS011;46702;48.370;10.794;2023-07-13T05:07:23;5.45;;;3.70;;
60867;SDS011;46702;48.370;10.794;2023-07-13T05:09:49;3.67;;;3.13;;
60867;SDS011;46702;48.370;10.794;2023-07-13T05:12:15;6.57;;;2.92;;
60867;SDS011;46702;48.370;10.794;2023-07-13T05:14:41;6.38;;;3.22;;
60867;SDS011;46702;48.370;10.794;2023-07-13T05:17:06;5.63;;;3.00;;
60867;SDS011;46702;48.370;10.794;2023-07-13T05:19:32;4.60;;;3.13;;
60867;SDS011;46702;48.370;10.794;2023-07-13T05:21:57;6.28;;;3.13;;
60867;SDS011;46702;48.370;10.794;2023-07-13T05:24:23;4.47;;;3.35;;
60867;SDS011;46702;48.370;10.794;2023-07-13T05:26:49;6.45;;;3.47;;
60867;SDS011;46702;48.370;10.794;2023-07-13T05:29:15;6.03;;;3.30;;
60867;SDS011;46702;48.370;10.794;2023-07-13T05:31:40;6.47;;;3.30;;
60867;SDS011;46702;48.370;10.794;2023-07-13T05:34:06;4.18;;;2.92;;
60867;SDS011;46702;48.370;10.794;2023-07-13T05:36:31;6.82;;;3.45;;
60867;SDS011;46702;48.370;10.794;2023-07-13T05:38:57;6.05;;;3.20;;
60867;SDS011;46702;48.370;10.794;2023-07-13T05:41:23;5.78;;;2.83;;
60867;SDS011;46702;48.370;10.794;2023-07-13T05:43:48;4.28;;;2.70;;
60867;SDS011;46702;48.370;10.794;2023-07-13T05:46:14;6.32;;;3.28;;
60867;SDS011;46702;48.370;10.794;2023-07-13T05:48:40;4.28;;;2.80;;
60867;SDS011;46702;48.370;10.794;2023-07-13T05:51:05;6.55;;;2.97;;
60867;SDS011;46702;48.370;10.794;2023-07-13T05:53:31;3.65;;;2.58;;
60867;SDS011;46702;48.370;10.794;2023-07-13T05:55:57;6.10;;;2.47;;
60867;SDS011;46702;48.370;10.794;2023-07-13T05:58:22;3.58;;;2.40;;
60867;SDS011;46702;48.370;10.794;2023-07-13T06:00:48;2.70;;;2.38;;
60867;SDS011;46702;48.370;10.794;2023-07-13T06:03:14;2.60;;;2.10;;
60867;SDS011;46702;48.370;10.794;2023-07-13T06:05:40;2.63;;;2.35;;
60867;SDS011;46702;48.370;10.794;2023-07-13T06:08:06;2.55;;;2.08;;
60867;SDS011;46702;48.370;10.794;2023-07-13T06:10:33;3.05;;;2.20;;
60867;SDS011;46702;48.370;10.794;2023-07-13T06:12:59;2.65;;;2.42;;
60867;SDS011;46702;48.370;10.794;2023-07-13T06:15:25;3.08;;;2.13;;
60867;SDS011;46702;48.370;10.794;2023-07-13T06:17:51;2.90;;;2.10;;
60867;SDS011;46702;48.370;10.794;2023-07-13T06:20:16;2.80;;;2.22;;
60867;SDS011;46702;48.370;10.794;2023-07-13T06:22:42;2.85;;;2.03;;
60867;SDS011;46702;48.370;10.794;2023-07-13T06:25:07;5.20;;;2.55;;
60867;SDS011;46702;48.370;10.794;2023-07-13T06:27:33;4.63;;;1.80;;
60867;SDS011;46702;48.370;10.794;2023-07-13T06:29:59;4.18;;;2.30;;
60867;SDS011;46702;48.370;10.794;2023-07-13T06:32:25;5.53;;;2.45;;
60867;SDS011;46702;48.370;10.794;2023-07-13T06:34:50;4.50;;;2.22;;
60867;SDS011;46702;48.370;10.794;2023-07-13T06:37:17;3.97;;;2.20;;
60867;SDS011;46702;48.370;10.794;2023-07-13T06:39:42;3.50;;;2.17;;
60867;SDS011;46702;48.370;10.794;2023-07-13T06:42:08;4.28;;;2.33;;
60867;SDS011;46702;48.370;10.794;2023-07-13T06:44:34;2.92;;;2.55;;
60867;SDS011;46702;48.370;10.794;2023-07-13T06:47:00;3.65;;;2.70;;
60867;SDS011;46702;48.370;10.794;2023-07-13T06:49:25;4.32;;;2.45;;
60867;SDS011;46702;48.370;10.794;2023-07-13T06:51:51;4.32;;;2.50;;
60867;SDS011;46702;48.370;10.794;2023-07-13T06:54:16;3.33;;;2.53;;
60867;SDS011;46702;48.370;10.794;2023-07-13T06:56:42;3.95;;;2.25;;
60867;SDS011;46702;48.370;10.794;2023-07-13T06:59:08;4.50;;;2.30;;
60867;SDS011;46702;48.370;10.794;2023-07-13T07:01:33;3.38;;;2.20;;
60867;SDS011;46702;48.370;10.794;2023-07-13T07:03:59;4.30;;;2.00;;
60867;SDS011;46702;48.370;10.794;2023-07-13T07:06:24;2.90;;;2.33;;
60867;SDS011;46702;48.370;10.794;2023-07-13T07:08:50;2.17;;;1.98;;
60867;SDS011;46702;48.370;10.794;2023-07-13T07:11:19;4.18;;;2.42;;
60867;SDS011;46702;48.370;10.794;2023-07-13T07:13:50;3.53;;;2.08;;
60867;SDS011;46702;48.370;10.794;2023-07-13T07:16:17;4.73;;;2.20;;
60867;SDS011;46702;48.370;10.794;2023-07-13T07:18:43;3.28;;;2.10;;
60867;SDS011;46702;48.370;10.794;2023-07-13T07:21:09;2.33;;;2.00;;
60867;SDS011;46702;48.370;10.794;2023-07-13T07:23:35;4.40;;;2.20;;
60867;SDS011;46702;48.370;10.794;2023-07-13T07:26:01;4.50;;;1.85;;
60867;SDS011;46702;48.370;10.794;2023-07-13T07:28:27;3.03;;;2.05;;
60867;SDS011;46702;48.370;10.794;2023-07-13T07:30:56;3.67;;;2.00;;
60867;SDS011;46702;48.370;10.794;2023-07-13T07:33:22;2.85;;;1.80;;
60867;SDS011;46702;48.370;10.794;2023-07-13T07:35:48;1.88;;;1.73;;
60867;SDS011;46702;48.370;10.794;2023-07-13T07:38:14;5.28;;;1.80;;
60867;SDS011;46702;48.370;10.794;2023-07-13T07:40:40;6.85;;;2.10;;
60867;SDS011;46702;48.370;10.794;2023-07-13T07:43:06;3.17;;;1.95;;
60867;SDS011;46702;48.370;10.794;2023-07-13T07:45:34;4.60;;;1.90;;
60867;SDS011;46702;48.370;10.794;2023-07-13T07:48:00;1.80;;;1.70;;
60867;SDS011;46702;48.370;10.794;2023-07-13T07:50:26;3.72;;;2.00;;
60867;SDS011;46702;48.370;10.794;2023-07-13T07:52:53;4.53;;;1.95;;
60867;SDS011;46702;48.370;10.794;2023-07-13T07:55:20;2.03;;;1.80;;
60867;SDS011;46702;48.370;10.794;2023-07-13T07:57:46;3.75;;;1.70;;
60867;SDS011;46702;48.370;10.794;2023-07-13T08:00:12;3.22;;;1.75;;
60867;SDS011;46702;48.370;10.794;2023-07-13T08:02:38;1.92;;;1.60;;
60867;SDS011;46702;48.370;10.794;2023-07-13T08:05:06;3.08;;;1.80;;
60867;SDS011;46702;48.370;10.794;2023-07-13T08:07:33;2.83;;;1.55;;
60867;SDS011;46702;48.370;10.794;2023-07-13T08:10:00;3.53;;;1.70;;
60867;SDS011;46702;48.370;10.794;2023-07-13T08:12:25;2.45;;;1.90;;
60867;SDS011;46702;48.370;10.794;2023-07-13T08:14:51;2.38;;;1.65;;
60867;SDS011;46702;48.370;10.794;2023-07-13T08:17:22;2.22;;;1.75;;
60867;SDS011;46702;48.370;10.794;2023-07-13T08:19:49;1.70;;;1.58;;
60867;SDS011;46702;48.370;10.794;2023-07-13T08:22:14;2.47;;;1.80;;
60867;SDS011;46702;48.370;10.794;2023-07-13T08:24:40;4.10;;;2.00;;
60867;SDS011;46702;48.370;10.794;2023-07-13T08:27:07;4.18;;;1.40;;
60867;SDS011;46702;48.370;10.794;2023-07-13T08:29:33;2.28;;;1.77;;
60867;SDS011;46702;48.370;10.794;2023-07-13T08:31:59;2.35;;;1.73;;
60867;SDS011;46702;48.370;10.794;2023-07-13T08:34:25;2.10;;;1.90;;
60867;SDS011;46702;48.370;10.794;2023-07-13T08:36:50;1.83;;;1.58;;
60867;SDS011;46702;48.370;10.794;2023-07-13T08:39:16;2.10;;;1.88;;
60867;SDS011;46702;48.370;10.794;2023-07-13T08:41:42;2.10;;;1.67;;
60867;SDS011;46702;48.370;10.794;2023-07-13T08:44:16;1.63;;;1.50;;
60867;SDS011;46702;48.370;10.794;2023-07-13T08:46:52;2.42;;;1.55;;
60867;SDS011;46702;48.370;10.794;2023-07-13T08:49:21;2.10;;;1.90;;
60867;SDS011;46702;48.370;10.794;2023-07-13T08:52:02;3.92;;;1.80;;
60867;SDS011;46702;48.370;10.794;2023-07-13T08:54:41;2.00;;;1.77;;
60867;SDS011;46702;48.370;10.794;2023-07-13T08:57:14;3.10;;;1.83;;
60867;SDS011;46702;48.370;10.794;2023-07-13T08:59:41;4.00;;;1.73;;
60867;SDS011;46702;48.370;10.794;2023-07-13T09:04:39;4.10;;;1.70;;
60867;SDS011;46702;48.370;10.794;2023-07-13T09:15:49;3.43;;;1.70;;
60867;SDS011;46702;48.370;10.794;2023-07-13T09:18:18;5.70;;;1.95;;
60867;SDS011;46702;48.370;10.794;2023-07-13T09:21:11;5.68;;;2.13;;
60867;SDS011;46702;48.370;10.794;2023-07-13T09:23:40;1.90;;;1.80;;
60867;SDS011;46702;48.370;10.794;2023-07-13T09:26:10;3.63;;;1.80;;
60867;SDS011;46702;48.370;10.794;2023-07-13T09:28:46;2.00;;;1.70;;
60867;SDS011;46702;48.370;10.794;2023-07-13T09:31:26;2.97;;;1.77;;
60867;SDS011;46702;48.370;10.794;2023-07-13T09:33:54;2.80;;;1.52;;
60867;SDS011;46702;48.370;10.794;2023-07-13T09:36:21;3.15;;;1.83;;
60867;SDS011;46702;48.370;10.794;2023-07-13T09:39:14;2.53;;;1.60;;
60867;SDS011;46702;48.370;10.794;2023-07-13T09:47:16;3.50;;;1.73;;
60867;SDS011;46702;48.370;10.794;2023-07-13T09:49:43;1.63;;;1.40;;
60867;SDS011;46702;48.370;10.794;2023-07-13T09:52:13;2.80;;;1.70;;
60867;SDS011;46702;48.370;10.794;2023-07-13T09:54:43;2.58;;;1.58;;
60867;SDS011;46702;48.370;10.794;2023-07-13T09:57:14;2.70;;;1.20;;
60867;SDS011;46702;48.370;10.794;2023-07-13T09:59:48;4.72;;;1.92;;
60867;SDS011;46702;48.370;10.794;2023-07-13T10:02:36;2.95;;;1.42;;
60867;SDS011;46702;48.370;10.794;2023-07-13T10:05:02;2.03;;;1.50;;
60867;SDS011;46702;48.370;10.794;2023-07-13T10:07:42;1.40;;;1.30;;
60867;SDS011;46702;48.370;10.794;2023-07-13T10:10:15;2.47;;;1.40;;
60867;SDS011;46702;48.370;10.794;2023-07-13T10:12:43;3.85;;;1.70;;
60867;SDS011;46702;48.370;10.794;2023-07-13T10:15:13;3.67;;;1.70;;
60867;SDS011;46702;48.370;10.794;2023-07-13T10:17:42;3.33;;;1.70;;
60867;SDS011;46702;48.370;10.794;2023-07-13T10:20:09;3.40;;;1.63;;
60867;SDS011;46702;48.370;10.794;2023-07-13T10:25:23;4.82;;;1.67;;
60867;SDS011;46702;48.370;10.794;2023-07-13T10:27:52;3.60;;;1.80;;
60867;SDS011;46702;48.370;10.794;2023-07-13T10:30:25;2.10;;;1.60;;
60867;SDS011;46702;48.370;10.794;2023-07-13T10:32:57;2.00;;;1.77;;
60867;SDS011;46702;48.370;10.794;2023-07-13T10:35:25;3.05;;;1.60;;
60867;SDS011;46702;48.370;10.794;2023-07-13T10:37:56;3.47;;;1.80;;
60867;SDS011;46702;48.370;10.794;2023-07-13T10:40:28;2.38;;;1.52;;
60867;SDS011;46702;48.370;10.794;2023-07-13T10:43:02;4.80;;;1.52;;
60867;SDS011;46702;48.370;10.794;2023-07-13T10:45:34;3.00;;;1.30;;
60867;SDS011;46702;48.370;10.794;2023-07-13T10:48:02;4.95;;;1.83;;
60867;SDS011;46702;48.370;10.794;2023-07-13T10:50:29;2.42;;;1.42;;
60867;SDS011;46702;48.370;10.794;2023-07-13T10:53:17;2.03;;;1.63;;
60867;SDS011;46702;48.370;10.794;2023-07-13T11:03:36;2.42;;;1.20;;
60867;SDS011;46702;48.370;10.794;2023-07-13T11:06:12;2.08;;;1.65;;
60867;SDS011;46702;48.370;10.794;2023-07-13T11:18:47;4.45;;;1.88;;
60867;SDS011;46702;48.370;10.794;2023-07-13T11:21:16;4.22;;;1.65;;
60867;SDS011;46702;48.370;10.794;2023-07-13T11:23:44;2.38;;;1.60;;
60867;SDS011;46702;48.370;10.794;2023-07-13T11:31:40;2.22;;;1.70;;
60867;SDS011;46702;48.370;10.794;2023-07-13T11:34:12;5.47;;;1.80;;
60867;SDS011;46702;48.370;10.794;2023-07-13T11:36:41;4.75;;;2.70;;
60867;SDS011;46702;48.370;10.794;2023-07-13T11:41:42;2.45;;;1.70;;
60867;SDS011;46702;48.370;10.794;2023-07-13T11:46:44;1.67;;;1.50;;
60867;SDS011;46702;48.370;10.794;2023-07-13T11:49:14;2.08;;;1.80;;
60867;SDS011;46702;48.370;10.794;2023-07-13T11:51:41;3.13;;;1.90;;
60867;SDS011;46702;48.370;10.794;2023-07-13T11:54:14;3.65;;;1.90;;
60867;SDS011;46702;48.370;10.794;2023-07-13T11:56:55;2.05;;;1.65;;
60867;SDS011;46702;48.370;10.794;2023-07-13T11:59:38;4.30;;;1.75;;
60867;SDS011;46702;48.370;10.794;2023-07-13T12:02:08;3.47;;;1.63;;
60867;SDS011;46702;48.370;10.794;2023-07-13T12:04:42;1.92;;;1.50;;
60867;SDS011;46702;48.370;10.794;2023-07-13T12:07:16;1.70;;;1.60;;
60867;SDS011;46702;48.370;10.794;2023-07-13T12:09:43;3.60;;;1.75;;
60867;SDS011;46702;48.370;10.794;2023-07-13T12:12:10;1.88;;;1.40;;
60867;SDS011;46702;48.370;10.794;2023-07-13T12:14:42;2.35;;;1.83;;
60867;SDS011;46702;48.370;10.794;2023-07-13T12:17:13;1.88;;;1.30;;
60867;SDS011;46702;48.370;10.794;2023-07-13T12:19:50;3.15;;;1.95;;
60867;SDS011;46702;48.370;10.794;2023-07-13T12:22:18;4.45;;;1.80;;
60867;SDS011;46702;48.370;10.794;2023-07-13T12:24:45;2.90;;;1.50;;
60867;SDS011;46702;48.370;10.794;2023-07-13T12:27:23;1.88;;;1.48;;
60867;SDS011;46702;48.370;10.794;2023-07-13T12:30:21;1.70;;;1.60;;
60867;SDS011;46702;48.370;10.794;2023-07-13T12:32:58;3.13;;;1.67;;
60867;SDS011;46702;48.370;10.794;2023-07-13T12:35:26;1.80;;;1.60;;
60867;SDS011;46702;48.370;10.794;2023-07-13T12:38:00;2.95;;;1.40;;
60867;SDS011;46702;48.370;10.794;2023-07-13T12:40:33;2.85;;;1.38;;
60867;SDS011;46702;48.370;10.794;2023-07-13T12:42:59;2.00;;;1.45;;
60867;SDS011;46702;48.370;10.794;2023-07-13T12:45:29;3.17;;;1.70;;
60867;SDS011;46702;48.370;10.794;2023-07-13T12:47:56;2.25;;;1.50;;
60867;SDS011;46702;48.370;10.794;2023-07-13T12:50:28;2.33;;;1.50;;
60867;SDS011;46702;48.370;10.794;2023-07-13T12:53:09;3.42;;;1.60;;
60867;SDS011;46702;48.370;10.794;2023-07-13T12:55:42;3.40;;;1.63;;
60867;SDS011;46702;48.370;10.794;2023-07-13T12:58:22;3.85;;;1.63;;
60867;SDS011;46702;48.370;10.794;2023-07-13T13:00:50;1.60;;;1.50;;
60867;SDS011;46702;48.370;10.794;2023-07-13T13:06:05;3.10;;;1.70;;
60867;SDS011;46702;48.370;10.794;2023-07-13T13:08:53;3.60;;;1.40;;
60867;SDS011;46702;48.370;10.794;2023-07-13T13:11:23;3.95;;;1.65;;
60867;SDS011;46702;48.370;10.794;2023-07-13T13:13:50;2.25;;;1.60;;
60867;SDS011;46702;48.370;10.794;2023-07-13T13:18:51;1.98;;;1.63;;
60867;SDS011;46702;48.370;10.794;2023-07-13T13:21:22;2.08;;;1.48;;
60867;SDS011;46702;48.370;10.794;2023-07-13T13:23:48;2.53;;;1.60;;
60867;SDS011;46702;48.370;10.794;2023-07-13T13:26:16;3.17;;;1.75;;
60867;SDS011;46702;48.370;10.794;2023-07-13T13:28:48;3.03;;;1.60;;
60867;SDS011;46702;48.370;10.794;2023-07-13T13:31:15;1.58;;;1.48;;
60867;SDS011;46702;48.370;10.794;2023-07-13T13:33:41;2.65;;;1.67;;
60867;SDS011;46702;48.370;10.794;2023-07-13T13:36:20;3.50;;;2.08;;
60867;SDS011;46702;48.370;10.794;2023-07-13T13:38:47;2.78;;;1.40;;
60867;SDS011;46702;48.370;10.794;2023-07-13T13:41:14;2.58;;;1.70;;
60867;SDS011;46702;48.370;10.794;2023-07-13T13:43:40;5.38;;;1.80;;
60867;SDS011;46702;48.370;10.794;2023-07-13T13:46:14;1.80;;;1.70;;
60867;SDS011;46702;48.370;10.794;2023-07-13T13:48:42;1.67;;;1.58;;
60867;SDS011;46702;48.370;10.794;2023-07-13T13:51:18;3.45;;;1.92;;
60867;SDS011;46702;48.370;10.794;2023-07-13T13:53:46;1.95;;;1.40;;
60867;SDS011;46702;48.370;10.794;2023-07-13T13:56:13;3.67;;;1.50;;
60867;SDS011;46702;48.370;10.794;2023-07-13T13:58:42;3.70;;;1.50;;
60867;SDS011;46702;48.370;10.794;2023-07-13T14:01:16;3.22;;;1.63;;
60867;SDS011;46702;48.370;10.794;2023-07-13T14:03:44;6.38;;;1.40;;
60867;SDS011;46702;48.370;10.794;2023-07-13T14:06:13;2.10;;;1.90;;
60867;SDS011;46702;48.370;10.794;2023-07-13T14:08:40;1.58;;;1.48;;
60867;SDS011;46702;48.370;10.794;2023-07-13T14:11:07;2.47;;;1.40;;
60867;SDS011;46702;48.370;10.794;2023-07-13T14:13:45;3.42;;;1.50;;
60867;SDS011;46702;48.370;10.794;2023-07-13T14:16:18;2.65;;;1.42;;
60867;SDS011;46702;48.370;10.794;2023-07-13T14:18:46;2.92;;;1.40;;
60867;SDS011;46702;48.370;10.794;2023-07-13T14:21:16;6.03;;;1.80;;
60867;SDS011;46702;48.370;10.794;2023-07-13T14:23:44;1.92;;;1.50;;
60867;SDS011;46702;48.370;10.794;2023-07-13T14:26:12;4.50;;;1.83;;
60867;SDS011;46702;48.370;10.794;2023-07-13T14:28:47;4.15;;;1.55;;
60867;SDS011;46702;48.370;10.794;2023-07-13T14:31:15;3.72;;;1.80;;
60867;SDS011;46702;48.370;10.794;2023-07-13T14:33:42;1.65;;;1.55;;
60867;SDS011;46702;48.370;10.794;2023-07-13T14:38:55;1.75;;;1.30;;
60867;SDS011;46702;48.370;10.794;2023-07-13T14:43:48;2.78;;;1.40;;
60867;SDS011;46702;48.370;10.794;2023-07-13T14:46:32;2.63;;;1.50;;
60867;SDS011;46702;48.370;10.794;2023-07-13T14:49:06;2.63;;;1.35;;
60867;SDS011;46702;48.370;10.794;2023-07-13T14:51:38;2.33;;;1.58;;
60867;SDS011;46702;48.370;10.794;2023-07-13T14:54:05;1.83;;;1.25;;
60867;SDS011;46702;48.370;10.794;2023-07-13T14:56:33;1.60;;;1.33;;
60867;SDS011;46702;48.370;10.794;2023-07-13T14:58:59;2.95;;;1.40;;
60867;SDS011;46702;48.370;10.794;2023-07-13T15:01:25;2.72;;;1.55;;
60867;SDS011;46702;48.370;10.794;2023-07-13T15:03:51;3.92;;;2.08;;
60867;SDS011;46702;48.370;10.794;2023-07-13T15:06:17;1.50;;;1.20;;
60867;SDS011;46702;48.370;10.794;2023-07-13T15:08:44;2.33;;;1.48;;
60867;SDS011;46702;48.370;10.794;2023-07-13T15:11:10;2.95;;;1.80;;
60867;SDS011;46702;48.370;10.794;2023-07-13T15:13:37;2.55;;;1.52;;
60867;SDS011;46702;48.370;10.794;2023-07-13T15:16:04;2.28;;;1.20;;
60867;SDS011;46702;48.370;10.794;2023-07-13T15:18:36;1.45;;;1.35;;
60867;SDS011;46702;48.370;10.794;2023-07-13T15:21:08;2.78;;;1.60;;
60867;SDS011;46702;48.370;10.794;2023-07-13T15:23:35;5.32;;;2.10;;
60867;SDS011;46702;48.370;10.794;2023-07-13T15:26:01;3.75;;;1.73;;
60867;SDS011;46702;48.370;10.794;2023-07-13T15:28:28;2.73;;;1.67;;
60867;SDS011;46702;48.370;10.794;2023-07-13T15:30:54;2.58;;;1.50;;
60867;SDS011;46702;48.370;10.794;2023-07-13T15:33:24;2.25;;;1.58;;
60867;SDS011;46702;48.370;10.794;2023-07-13T15:35:52;2.00;;;1.30;;
60867;SDS011;46702;48.370;10.794;2023-07-13T15:38:21;5.15;;;1.50;;
60867;SDS011;46702;48.370;10.794;2023-07-13T15:40:48;1.70;;;1.60;;
60867;SDS011;46702;48.370;10.794;2023-07-13T15:43:15;2.03;;;1.50;;